createdAt,value
2023-04-02T00:01:37.307Z,6.54
2023-04-02T00:04:14.790Z,6.60
2023-04-02T00:06:45.303Z,6.65
2023-04-02T00:09:15.210Z,6.64
2023-04-02T00:11:45.152Z,6.63
2023-04-02T00:14:27.426Z,6.71
2023-04-02T00:16:56.076Z,6.66
2023-04-02T00:19:42.369Z,6.51
2023-04-02T00:22:20.562Z,6.43
2023-04-02T00:24:51.392Z,6.42
2023-04-02T00:27:18.157Z,6.43
2023-04-02T00:29:56.260Z,6.42
2023-04-02T00:32:27.565Z,6.38
2023-04-02T00:34:55.905Z,6.47
2023-04-02T00:37:28.190Z,6.54
2023-04-02T00:40:07.380Z,6.60
2023-04-02T00:42:36.043Z,6.66
2023-04-02T00:45:03.381Z,6.45
2023-04-02T00:47:37.594Z,6.61
2023-04-02T00:50:14.677Z,6.55
2023-04-02T00:52:44.835Z,6.57
2023-04-02T00:55:18.016Z,6.58
2023-04-02T00:57:45.853Z,6.51
2023-04-02T01:00:35.849Z,6.51
2023-04-02T01:03:18.161Z,6.50
2023-04-02T01:05:51.916Z,6.39
2023-04-02T01:08:21.514Z,6.47
2023-04-02T01:10:54.157Z,6.44
2023-04-02T01:13:35.363Z,6.45
2023-04-02T01:16:20.962Z,6.29
2023-04-02T01:19:02.224Z,6.45
2023-04-02T01:21:53.203Z,6.44
2023-04-02T01:24:24.726Z,6.40
2023-04-02T01:26:58.093Z,6.47
2023-04-02T01:30:05.414Z,6.46
2023-04-02T01:32:32.471Z,6.43
2023-04-02T01:34:59.203Z,6.46
2023-04-02T01:37:37.086Z,6.44
2023-04-02T01:40:29.477Z,6.48
2023-04-02T01:43:11.772Z,6.47
2023-04-02T01:45:38.649Z,6.46
2023-04-02T01:48:07.458Z,6.50
2023-04-02T01:50:40.388Z,6.44
2023-04-02T01:53:10.928Z,6.44
2023-04-02T01:55:43.574Z,6.49
2023-04-02T01:58:12.380Z,6.44
2023-04-02T02:00:49.908Z,6.43
2023-04-02T02:03:17.620Z,6.39
2023-04-02T02:05:44.879Z,6.34
2023-04-02T02:08:24.284Z,6.36
2023-04-02T02:10:51.040Z,6.27
2023-04-02T02:13:17.924Z,6.17
2023-04-02T02:15:48.051Z,6.35
2023-04-02T02:18:20.215Z,6.35
2023-04-02T02:20:47.694Z,6.38
2023-04-02T02:23:15.100Z,6.38
2023-04-02T02:25:41.984Z,6.34
2023-04-02T02:28:33.489Z,6.34
2023-04-02T02:31:07.146Z,6.14
2023-04-02T02:33:39.390Z,6.34
2023-04-02T02:36:16.296Z,6.26
2023-04-02T02:38:54.391Z,6.41
2023-04-02T02:41:42.921Z,6.45
2023-04-02T02:44:09.646Z,6.45
2023-04-02T02:46:51.836Z,6.36
2023-04-02T02:49:26.871Z,6.35
2023-04-02T02:52:07.784Z,6.19
2023-04-02T02:54:36.355Z,6.27
2023-04-02T02:57:07.798Z,6.26
2023-04-02T02:59:34.942Z,6.22
2023-04-02T03:02:04.015Z,6.22
2023-04-02T03:04:31.031Z,6.16
2023-04-02T03:06:58.922Z,6.06
2023-04-02T03:09:34.269Z,6.09
2023-04-02T03:12:19.437Z,6.15
2023-04-02T03:15:13.898Z,6.15
2023-04-02T03:18:11.370Z,6.12
2023-04-02T03:20:46.924Z,6.09
2023-04-02T03:23:22.688Z,6.10
2023-04-02T03:26:11.679Z,6.00
2023-04-02T03:28:46.806Z,6.11
2023-04-02T03:31:19.981Z,6.17
2023-04-02T03:33:53.246Z,6.15
2023-04-02T03:36:33.268Z,6.09
2023-04-02T03:39:23.201Z,6.17
2023-04-02T03:41:52.684Z,6.19
2023-04-02T03:44:32.027Z,6.23
2023-04-02T03:47:12.614Z,6.18
2023-04-02T03:49:53.233Z,6.22
2023-04-02T03:52:28.543Z,6.18
2023-04-02T03:54:58.962Z,6.15
2023-04-02T03:58:07.588Z,6.19
2023-04-02T04:00:52.616Z,6.03
2023-04-02T04:03:31.751Z,6.14
2023-04-02T04:06:18.302Z,6.14
2023-04-02T04:09:11.166Z,6.15
2023-04-02T04:11:48.449Z,6.18
2023-04-02T04:14:20.336Z,6.23
2023-04-02T04:16:53.947Z,6.17
2023-04-02T04:19:33.854Z,6.27
2023-04-02T04:22:34.175Z,6.27
2023-04-02T04:25:02.545Z,6.30
2023-04-02T04:27:48.345Z,6.27
2023-04-02T04:30:24.610Z,6.29
2023-04-02T04:32:58.764Z,6.21
2023-04-02T04:35:31.377Z,6.27
2023-04-02T04:38:07.922Z,6.28
2023-04-02T04:40:45.828Z,6.29
2023-04-02T04:43:19.015Z,6.22
2023-04-02T04:45:54.669Z,6.20
2023-04-02T04:48:29.761Z,5.93
2023-04-02T04:51:04.240Z,5.97
2023-04-02T04:53:31.418Z,5.88
2023-04-02T04:56:12.533Z,5.83
2023-04-02T04:58:53.908Z,5.83
2023-04-02T05:01:28.987Z,5.80
2023-04-02T05:04:11.559Z,5.71
2023-04-02T05:06:49.638Z,5.63
2023-04-02T05:09:29.718Z,5.67
2023-04-02T05:12:05.383Z,5.64
2023-04-02T05:14:46.121Z,5.61
2023-04-02T05:17:23.676Z,5.48
2023-04-02T05:20:09.890Z,5.63
2023-04-02T05:22:44.267Z,5.58
2023-04-02T05:25:31.090Z,5.74
2023-04-02T05:28:03.928Z,5.75
2023-04-02T05:30:41.124Z,5.76
2023-04-02T05:33:28.932Z,5.79
2023-04-02T05:36:05.590Z,5.78
2023-04-02T05:38:35.660Z,5.62
2023-04-02T05:41:07.417Z,5.75
2023-04-02T05:43:37.287Z,5.85
2023-04-02T05:46:14.246Z,5.56
2023-04-02T05:48:43.552Z,5.46
2023-04-02T05:51:19.069Z,5.60
2023-04-02T05:53:57.377Z,5.63
2023-04-02T05:56:40.158Z,5.64
2023-04-02T05:59:23.269Z,5.69
2023-04-02T06:02:24.253Z,5.78
2023-04-02T06:04:58.499Z,5.82
2023-04-02T06:07:36.422Z,5.89
2023-04-02T06:10:08.143Z,5.79
2023-04-02T06:12:46.975Z,6.03
2023-04-02T06:15:21.492Z,5.99
2023-04-02T06:17:53.057Z,5.83
2023-04-02T06:20:21.426Z,5.72
2023-04-02T06:23:02.971Z,5.74
2023-04-02T06:25:38.000Z,5.51
2023-04-02T06:28:07.258Z,5.25
2023-04-02T06:30:38.134Z,5.44
2023-04-02T06:33:05.138Z,5.30
2023-04-02T06:35:35.212Z,5.38
2023-04-02T06:38:06.175Z,5.31
2023-04-02T06:40:35.886Z,5.28
2023-04-02T06:43:13.802Z,4.99
2023-04-02T06:45:44.256Z,5.29
2023-04-02T06:48:21.018Z,5.08
2023-04-02T06:51:07.431Z,5.33
2023-04-02T06:53:39.244Z,5.45
2023-04-02T06:56:17.676Z,5.53
2023-04-02T06:58:44.500Z,5.31
2023-04-02T07:01:19.915Z,5.04
2023-04-02T07:03:46.628Z,4.89
2023-04-02T07:06:20.445Z,4.68
2023-04-02T07:08:47.378Z,4.53
2023-04-02T07:11:20.891Z,4.67
2023-04-02T07:13:49.192Z,4.48
2023-04-02T07:16:18.149Z,4.50
2023-04-02T07:18:46.466Z,4.48
2023-04-02T07:21:13.408Z,4.21
2023-04-02T07:23:40.611Z,4.07
2023-04-02T07:26:08.462Z,3.94
2023-04-02T07:28:35.264Z,3.99
2023-04-02T07:31:01.981Z,4.09
2023-04-02T07:33:31.100Z,3.78
2023-04-02T07:35:58.621Z,4.13
2023-04-02T07:38:25.628Z,4.15
2023-04-02T07:40:52.686Z,4.30
2023-04-02T07:43:21.964Z,4.06
2023-04-02T07:45:50.794Z,4.41
2023-04-02T07:48:17.504Z,4.21
2023-04-02T07:50:44.175Z,4.01
2023-04-02T07:53:31.935Z,3.80
2023-04-02T07:56:01.613Z,3.75
2023-04-02T07:58:29.691Z,3.71
2023-04-02T08:00:56.676Z,3.60
2023-04-02T08:03:23.984Z,3.42
2023-04-02T08:05:58.653Z,3.29
2023-04-02T08:08:26.122Z,3.46
2023-04-02T08:10:53.052Z,3.53
2023-04-02T08:13:19.898Z,3.67
2023-04-02T08:15:46.683Z,3.63
2023-04-02T08:18:13.532Z,3.72
2023-04-02T08:20:40.398Z,3.65
2023-04-02T08:23:15.492Z,3.54
2023-04-02T08:25:42.421Z,3.43
2023-04-02T08:28:09.134Z,3.38
2023-04-02T08:30:36.026Z,3.59
2023-04-02T08:33:03.860Z,3.73
2023-04-02T08:35:30.917Z,3.66
2023-04-02T08:37:57.540Z,3.45
2023-04-02T08:40:37.549Z,3.69
2023-04-02T08:43:38.860Z,3.85
2023-04-02T08:46:19.214Z,3.88
2023-04-02T08:48:51.001Z,3.86
2023-04-02T08:51:26.980Z,3.70
2023-04-02T08:53:59.945Z,3.80
2023-04-02T08:56:33.821Z,3.75
2023-04-02T08:59:09.465Z,3.72
2023-04-02T09:01:47.426Z,3.82
2023-04-02T09:04:19.084Z,3.89
2023-04-02T09:06:47.276Z,3.89
2023-04-02T09:09:15.737Z,4.22
2023-04-02T09:12:04.603Z,4.15
2023-04-02T09:15:09.028Z,4.04
2023-04-02T09:17:50.607Z,4.04
2023-04-02T09:20:24.537Z,3.74
2023-04-02T09:22:53.377Z,3.98
2023-04-02T09:25:27.573Z,4.07
2023-04-02T09:27:57.772Z,4.16
2023-04-02T09:30:24.460Z,4.10
2023-04-02T09:32:57.171Z,4.06
2023-04-02T09:35:51.700Z,3.95
2023-04-02T09:38:29.138Z,4.10
2023-04-02T09:41:01.652Z,4.17
2023-04-02T09:43:29.715Z,4.06
2023-04-02T09:46:06.499Z,4.00
2023-04-02T09:48:36.388Z,4.19
2023-04-02T09:51:12.627Z,4.03
2023-04-02T09:54:13.279Z,3.98
2023-04-02T09:56:41.494Z,3.95
2023-04-02T09:59:13.929Z,3.69
2023-04-02T10:01:44.522Z,3.59
2023-04-02T10:04:33.915Z,3.66
2023-04-02T10:07:00.640Z,3.82
2023-04-02T10:09:38.721Z,3.80
2023-04-02T10:12:12.527Z,3.58
2023-04-02T10:14:48.652Z,3.77
2023-04-02T10:17:32.779Z,3.81
2023-04-02T10:20:06.708Z,3.74
2023-04-02T10:22:33.559Z,4.03
2023-04-02T10:25:00.685Z,3.72
2023-04-02T10:27:43.710Z,3.96
2023-04-02T10:30:50.201Z,3.88
2023-04-02T10:33:36.059Z,3.68
2023-04-02T10:36:24.372Z,3.81
2023-04-02T10:38:56.316Z,3.79
2023-04-02T10:41:29.208Z,3.83
2023-04-02T10:44:20.490Z,3.63
2023-04-02T10:47:19.107Z,3.64
2023-04-02T10:50:19.976Z,3.65
2023-04-02T10:52:56.543Z,3.67
2023-04-02T10:55:31.975Z,3.57
2023-04-02T10:58:06.789Z,3.67
2023-04-02T11:00:40.857Z,3.87
2023-04-02T11:03:14.487Z,3.83
2023-04-02T11:05:44.612Z,3.85
2023-04-02T11:08:23.143Z,3.83
2023-04-02T11:11:04.903Z,3.90
2023-04-02T11:13:41.738Z,3.85
2023-04-02T11:16:08.619Z,3.72
2023-04-02T11:18:38.978Z,3.84
2023-04-02T11:21:28.387Z,3.93
2023-04-02T11:24:00.863Z,3.93
2023-04-02T11:26:38.656Z,3.96
2023-04-02T11:29:15.138Z,3.74
2023-04-02T11:31:43.166Z,3.95
2023-04-02T11:34:43.231Z,3.93
2023-04-02T11:37:29.576Z,4.01
2023-04-02T11:39:59.457Z,3.85
2023-04-02T11:42:31.970Z,4.15
2023-04-02T11:45:23.186Z,4.21
2023-04-02T11:48:02.193Z,4.28
2023-04-02T11:50:37.697Z,4.11
2023-04-02T11:53:11.070Z,4.17
2023-04-02T11:55:39.977Z,4.09
2023-04-02T11:58:33.262Z,4.14
2023-04-02T12:01:08.032Z,4.24
2023-04-02T12:04:16.957Z,4.10
2023-04-02T12:06:47.381Z,4.08
2023-04-02T12:09:20.268Z,4.13
2023-04-02T12:11:48.130Z,3.97
2023-04-02T12:14:42.014Z,4.12
2023-04-02T12:17:32.470Z,4.02
2023-04-02T12:20:04.369Z,3.87
2023-04-02T12:22:33.856Z,3.89
2023-04-02T12:25:31.708Z,3.98
2023-04-02T12:28:10.655Z,4.11
2023-04-02T12:30:38.905Z,4.09
2023-04-02T12:33:37.666Z,4.19
2023-04-02T12:36:09.240Z,4.18
2023-04-02T12:38:45.855Z,4.13
2023-04-02T12:41:30.365Z,4.19
2023-04-02T12:44:02.641Z,4.16
2023-04-02T12:46:36.274Z,4.45
2023-04-02T12:49:08.660Z,4.54
2023-04-02T12:51:39.148Z,4.45
2023-04-02T12:54:06.430Z,4.23
2023-04-02T12:56:33.239Z,4.17
2023-04-02T12:59:01.548Z,4.23
2023-04-02T13:01:31.822Z,4.23
2023-04-02T13:04:01.534Z,4.22
2023-04-02T13:06:30.714Z,4.06
2023-04-02T13:08:59.111Z,4.03
2023-04-02T13:11:42.219Z,4.30
2023-04-02T13:14:20.030Z,4.26
2023-04-02T13:16:47.814Z,4.12
2023-04-02T13:19:17.274Z,4.19
2023-04-02T13:21:46.125Z,4.07
2023-04-02T13:24:30.601Z,4.21
2023-04-02T13:27:03.954Z,3.93
2023-04-02T13:29:34.492Z,4.00
2023-04-02T13:32:03.433Z,3.98
2023-04-02T13:34:31.048Z,3.99
2023-04-02T13:36:58.535Z,3.91
2023-04-02T13:39:26.238Z,3.91
2023-04-02T13:41:57.613Z,4.15
2023-04-02T13:44:32.757Z,4.16
2023-04-02T13:47:00.784Z,4.10
2023-04-02T13:49:28.290Z,3.99
2023-04-02T13:51:59.814Z,3.94
2023-04-02T13:54:37.566Z,3.97
2023-04-02T13:57:04.419Z,3.87
2023-04-02T13:59:31.583Z,3.79
2023-04-02T14:02:05.771Z,3.46
2023-04-02T14:04:38.503Z,3.62
2023-04-02T14:07:11.551Z,3.69
2023-04-02T14:10:01.279Z,3.72
2023-04-02T14:12:44.909Z,3.71
2023-04-02T14:16:09.038Z,3.71
2023-04-02T14:18:56.579Z,3.58
2023-04-02T14:21:47.845Z,3.62
2023-04-02T14:25:06.462Z,3.32
2023-04-02T14:27:36.978Z,3.32
2023-04-02T14:30:22.533Z,3.22
2023-04-02T14:33:13.876Z,3.22
2023-04-02T14:35:46.818Z,3.26
2023-04-02T14:38:24.918Z,3.31
2023-04-02T14:41:04.630Z,3.08
2023-04-02T14:43:45.265Z,3.14
2023-04-02T14:46:13.900Z,3.05
2023-04-02T14:48:54.476Z,2.81
2023-04-02T14:51:47.513Z,3.07
2023-04-02T14:54:26.329Z,3.06
2023-04-02T14:56:57.664Z,2.90
2023-04-02T15:00:13.568Z,3.12
2023-04-02T15:02:48.033Z,3.17
2023-04-02T15:05:20.548Z,3.10
2023-04-02T15:08:27.518Z,3.17
2023-04-02T15:11:10.566Z,3.08
2023-04-02T15:13:43.198Z,3.00
2023-04-02T15:16:16.604Z,2.88
2023-04-02T15:18:46.499Z,2.77
2023-04-02T15:21:29.665Z,2.58
2023-04-02T15:24:22.545Z,2.42
2023-04-02T15:26:58.139Z,2.67
2023-04-02T15:29:34.416Z,2.65
2023-04-02T15:32:25.132Z,2.46
2023-04-02T15:35:35.784Z,2.67
2023-04-02T15:38:36.676Z,2.48
2023-04-02T15:41:15.619Z,2.51
2023-04-02T15:44:01.952Z,2.47
2023-04-02T15:46:38.284Z,2.32
2023-04-02T15:49:33.720Z,2.36
2023-04-02T15:52:26.985Z,2.04
2023-04-02T15:55:18.974Z,2.29
2023-04-02T15:57:55.001Z,2.36
2023-04-02T16:00:26.866Z,2.12
2023-04-02T16:03:06.657Z,2.26
2023-04-02T16:05:39.450Z,2.21
2023-04-02T16:08:27.441Z,2.17
2023-04-02T16:10:54.220Z,2.27
2023-04-02T16:13:23.639Z,2.25
2023-04-02T16:16:00.258Z,2.13
2023-04-02T16:18:59.526Z,2.17
2023-04-02T16:21:50.672Z,2.07
2023-04-02T16:24:17.383Z,2.18
2023-04-02T16:26:54.540Z,2.33
2023-04-02T16:30:00.572Z,2.42
2023-04-02T16:32:58.854Z,2.54
2023-04-02T16:35:44.137Z,2.61
2023-04-02T16:38:18.302Z,2.40
2023-04-02T16:41:08.923Z,2.46
2023-04-02T16:44:13.887Z,2.40
2023-04-02T16:47:04.778Z,2.18
2023-04-02T16:49:47.949Z,2.18
2023-04-02T16:52:47.125Z,2.18
2023-04-02T16:55:47.098Z,2.10
2023-04-02T16:58:26.013Z,2.09
2023-04-02T17:01:08.805Z,1.66
2023-04-02T17:03:51.027Z,1.96
2023-04-02T17:06:44.503Z,2.04
2023-04-02T17:09:11.148Z,2.00
2023-04-02T17:11:46.885Z,1.88
2023-04-02T17:14:34.847Z,2.02
2023-04-02T17:17:04.036Z,1.95
2023-04-02T17:19:32.995Z,1.98
2023-04-02T17:22:03.299Z,2.07
2023-04-02T17:24:41.596Z,2.12
2023-04-02T17:27:37.952Z,2.10
2023-04-02T17:30:15.712Z,2.00
2023-04-02T17:32:43.281Z,1.82
2023-04-02T17:35:29.199Z,2.02
2023-04-02T17:37:56.813Z,1.93
2023-04-02T17:40:39.636Z,1.97
2023-04-02T17:43:46.273Z,2.02
2023-04-02T17:46:26.256Z,1.84
2023-04-02T17:49:08.351Z,1.78
2023-04-02T17:52:05.975Z,1.70
2023-04-02T17:54:53.293Z,1.65
2023-04-02T17:57:40.796Z,1.79
2023-04-02T18:00:19.478Z,1.86
2023-04-02T18:03:01.906Z,1.76
2023-04-02T18:05:43.268Z,2.01
2023-04-02T18:08:37.289Z,2.04
2023-04-02T18:11:19.345Z,2.03
2023-04-02T18:14:31.758Z,2.06
2023-04-02T18:17:10.221Z,2.04
2023-04-02T18:19:52.044Z,2.02
2023-04-02T18:22:42.186Z,2.07
2023-04-02T18:25:24.897Z,2.08
2023-04-02T18:28:31.197Z,2.09
2023-04-02T18:31:26.605Z,2.06
2023-04-02T18:34:18.760Z,2.06
2023-04-02T18:37:11.278Z,1.90
2023-04-02T18:39:47.656Z,2.07
2023-04-02T18:42:34.563Z,2.11
2023-04-02T18:45:09.818Z,2.09
2023-04-02T18:48:18.507Z,2.02
2023-04-02T18:50:47.268Z,2.01
2023-04-02T18:53:19.411Z,1.97
2023-04-02T18:55:55.328Z,1.85
2023-04-02T18:59:03.774Z,1.77
2023-04-02T19:01:39.507Z,1.95
2023-04-02T19:04:10.196Z,1.69
2023-04-02T19:06:43.537Z,1.85
2023-04-02T19:09:24.910Z,1.82
2023-04-02T19:11:53.307Z,1.56
2023-04-02T19:14:21.641Z,1.85
2023-04-02T19:17:00.219Z,1.91
2023-04-02T19:19:28.162Z,1.54
2023-04-02T19:22:08.226Z,1.74
2023-04-02T19:24:58.156Z,1.77
2023-04-02T19:27:41.889Z,1.76
2023-04-02T19:30:23.427Z,1.78
2023-04-02T19:33:08.408Z,1.73
2023-04-02T19:35:54.172Z,1.53
2023-04-02T19:38:43.772Z,1.69
2023-04-02T19:41:16.336Z,1.72
2023-04-02T19:43:43.465Z,1.50
2023-04-02T19:46:10.257Z,1.52
2023-04-02T19:48:51.562Z,1.52
2023-04-02T19:51:18.229Z,1.26
2023-04-02T19:53:44.921Z,1.27
2023-04-02T19:56:11.626Z,1.41
2023-04-02T19:58:38.304Z,1.39
2023-04-02T20:01:05.138Z,1.35
2023-04-02T20:03:32.671Z,1.31
2023-04-02T20:05:59.916Z,1.18
2023-04-02T20:08:27.669Z,1.01
2023-04-02T20:10:55.033Z,1.13
2023-04-02T20:13:21.738Z,1.09
2023-04-02T20:15:49.309Z,1.02
2023-04-02T20:18:16.134Z,1.03
2023-04-02T20:20:48.481Z,1.11
2023-04-02T20:23:16.650Z,1.00
2023-04-02T20:25:47.863Z,1.23
2023-04-02T20:28:14.649Z,1.39
2023-04-02T20:30:41.378Z,1.34
2023-04-02T20:33:08.562Z,1.44
2023-04-02T20:35:35.784Z,1.33
2023-04-02T20:38:06.556Z,1.41
2023-04-02T20:40:33.910Z,1.40
2023-04-02T20:43:00.792Z,1.15
2023-04-02T20:45:29.365Z,1.16
2023-04-02T20:47:56.890Z,1.24
2023-04-02T20:50:24.382Z,1.13
2023-04-02T20:52:52.010Z,1.11
2023-04-02T20:55:19.826Z,1.15
2023-04-02T20:57:47.034Z,1.16
2023-04-02T21:00:14.813Z,1.17
2023-04-02T21:02:44.215Z,1.26
2023-04-02T21:05:11.156Z,1.17
2023-04-02T21:07:37.943Z,1.14
2023-04-02T21:10:04.902Z,1.16
2023-04-02T21:12:31.796Z,1.07
2023-04-02T21:15:01.715Z,0.82
2023-04-02T21:17:29.484Z,0.76
2023-04-02T21:19:56.275Z,0.89
2023-04-02T21:22:23.154Z,0.78
2023-04-02T21:24:49.852Z,0.73
2023-04-02T21:27:16.966Z,0.74
2023-04-02T21:29:44.677Z,0.72
2023-04-02T21:32:20.777Z,0.62
2023-04-02T21:34:48.450Z,0.60
2023-04-02T21:37:15.135Z,0.48
2023-04-02T21:39:41.782Z,0.47
2023-04-02T21:42:08.534Z,0.52
2023-04-02T21:44:35.136Z,0.47
2023-04-02T21:47:01.831Z,0.63
2023-04-02T21:49:30.017Z,0.74
2023-04-02T21:51:56.789Z,0.83
2023-04-02T21:54:23.741Z,0.78
2023-04-02T21:56:50.857Z,0.66
2023-04-02T21:59:18.272Z,0.48
2023-04-02T22:01:50.707Z,0.34
2023-04-02T22:04:25.842Z,0.41
2023-04-02T22:06:53.697Z,0.40
2023-04-02T22:09:23.703Z,0.52
2023-04-02T22:11:54.712Z,0.33
2023-04-02T22:14:21.845Z,0.48
2023-04-02T22:16:48.675Z,0.38
2023-04-02T22:19:16.835Z,0.47
2023-04-02T22:21:43.753Z,0.33
2023-04-02T22:24:14.027Z,0.42
2023-04-02T22:26:41.585Z,0.51
2023-04-02T22:29:08.617Z,0.46
2023-04-02T22:31:36.951Z,0.37
2023-04-02T22:34:06.173Z,0.25
2023-04-02T22:36:33.703Z,0.22
2023-04-02T22:39:01.327Z,0.20
2023-04-02T22:41:29.607Z,0.48
2023-04-02T22:43:59.147Z,0.42
2023-04-02T22:46:27.325Z,0.43
2023-04-02T22:48:56.000Z,0.43
2023-04-02T22:51:24.384Z,0.25
2023-04-02T22:53:53.887Z,0.12
2023-04-02T22:56:23.209Z,0.33
2023-04-02T22:58:50.500Z,0.44
2023-04-02T23:01:29.577Z,0.40
2023-04-02T23:03:57.021Z,0.38
2023-04-02T23:06:24.757Z,0.29
2023-04-02T23:08:52.490Z,0.21
2023-04-02T23:11:27.964Z,0.33
2023-04-02T23:13:57.853Z,0.34
2023-04-02T23:16:27.296Z,0.39
2023-04-02T23:18:55.926Z,0.47
2023-04-02T23:21:23.417Z,0.17
2023-04-02T23:23:51.227Z,0.38
2023-04-02T23:26:21.962Z,0.37
2023-04-02T23:28:49.937Z,0.21
2023-04-02T23:31:22.920Z,0.22
2023-04-02T23:33:51.572Z,0.25
2023-04-02T23:36:26.593Z,0.35
2023-04-02T23:38:55.760Z,0.29
2023-04-02T23:41:27.100Z,0.26
2023-04-02T23:43:55.035Z,0.25
2023-04-02T23:46:23.500Z,0.13
2023-04-02T23:48:51.475Z,0.01
2023-04-02T23:51:18.790Z,0.07
2023-04-02T23:53:45.555Z,-0.03
2023-04-02T23:56:12.474Z,-0.11
2023-04-02T23:58:39.148Z,-0.10
